sensor_id;sensor_type;location;lat;lon;timestamp;P1;durP1;ratioP1;P2;durP2;ratioP2
61458;SDS011;47324;48.760;9.156;2023-07-30T00:01:54;3.03;;;1.25;;
61458;SDS011;47324;48.760;9.156;2023-07-30T00:04:38;5.28;;;1.45;;
61458;SDS011;47324;48.760;9.156;2023-07-30T00:07:23;5.03;;;1.40;;
61458;SDS011;47324;48.760;9.156;2023-07-30T00:10:08;6.03;;;1.48;;
61458;SDS011;47324;48.760;9.156;2023-07-30T00:12:53;3.92;;;1.60;;
61458;SDS011;47324;48.760;9.156;2023-07-30T00:15:37;4.28;;;1.23;;
61458;SDS011;47324;48.760;9.156;2023-07-30T00:18:22;5.32;;;1.38;;
61458;SDS011;47324;48.760;9.156;2023-07-30T00:21:06;2.92;;;1.10;;
61458;SDS011;47324;48.760;9.156;2023-07-30T00:23:51;2.25;;;1.10;;
61458;SDS011;47324;48.760;9.156;2023-07-30T00:26:36;2.92;;;1.17;;
61458;SDS011;47324;48.760;9.156;2023-07-30T00:29:22;2.60;;;1.08;;
61458;SDS011;47324;48.760;9.156;2023-07-30T00:32:07;3.83;;;1.20;;
61458;SDS011;47324;48.760;9.156;2023-07-30T00:34:53;2.65;;;1.10;;
61458;SDS011;47324;48.760;9.156;2023-07-30T00:37:38;2.80;;;1.38;;
61458;SDS011;47324;48.760;9.156;2023-07-30T00:40:22;3.38;;;1.45;;
61458;SDS011;47324;48.760;9.156;2023-07-30T00:43:08;2.38;;;1.30;;
61458;SDS011;47324;48.760;9.156;2023-07-30T00:45:52;2.67;;;1.50;;
61458;SDS011;47324;48.760;9.156;2023-07-30T00:48:37;3.42;;;1.25;;
61458;SDS011;47324;48.760;9.156;2023-07-30T00:51:22;2.22;;;1.00;;
61458;SDS011;47324;48.760;9.156;2023-07-30T00:54:06;3.42;;;0.98;;
61458;SDS011;47324;48.760;9.156;2023-07-30T00:56:51;2.90;;;1.33;;
61458;SDS011;47324;48.760;9.156;2023-07-30T00:59:37;2.28;;;1.30;;
61458;SDS011;47324;48.760;9.156;2023-07-30T01:02:21;4.47;;;1.40;;
61458;SDS011;47324;48.760;9.156;2023-07-30T01:05:06;2.17;;;1.00;;
61458;SDS011;47324;48.760;9.156;2023-07-30T01:07:50;2.72;;;1.40;;
61458;SDS011;47324;48.760;9.156;2023-07-30T01:10:35;4.50;;;1.55;;
61458;SDS011;47324;48.760;9.156;2023-07-30T01:13:21;3.05;;;1.48;;
61458;SDS011;47324;48.760;9.156;2023-07-30T01:16:06;5.38;;;1.90;;
61458;SDS011;47324;48.760;9.156;2023-07-30T01:18:51;3.10;;;1.70;;
61458;SDS011;47324;48.760;9.156;2023-07-30T01:21:36;3.95;;;1.33;;
61458;SDS011;47324;48.760;9.156;2023-07-30T01:24:20;4.20;;;1.90;;
61458;SDS011;47324;48.760;9.156;2023-07-30T01:27:06;2.80;;;1.23;;
61458;SDS011;47324;48.760;9.156;2023-07-30T01:29:53;3.72;;;1.60;;
61458;SDS011;47324;48.760;9.156;2023-07-30T01:32:41;2.97;;;1.73;;
61458;SDS011;47324;48.760;9.156;2023-07-30T01:35:26;3.72;;;1.55;;
61458;SDS011;47324;48.760;9.156;2023-07-30T01:38:12;3.30;;;1.42;;
61458;SDS011;47324;48.760;9.156;2023-07-30T01:40:57;4.18;;;1.75;;
61458;SDS011;47324;48.760;9.156;2023-07-30T01:43:42;3.60;;;1.75;;
61458;SDS011;47324;48.760;9.156;2023-07-30T01:46:26;6.28;;;1.55;;
61458;SDS011;47324;48.760;9.156;2023-07-30T01:49:12;4.25;;;1.85;;
61458;SDS011;47324;48.760;9.156;2023-07-30T01:51:56;4.65;;;2.00;;
61458;SDS011;47324;48.760;9.156;2023-07-30T01:54:41;4.80;;;2.13;;
61458;SDS011;47324;48.760;9.156;2023-07-30T01:57:26;3.83;;;2.08;;
61458;SDS011;47324;48.760;9.156;2023-07-30T02:00:11;5.30;;;1.77;;
61458;SDS011;47324;48.760;9.156;2023-07-30T02:02:56;3.85;;;2.08;;
61458;SDS011;47324;48.760;9.156;2023-07-30T02:05:41;4.88;;;1.67;;
61458;SDS011;47324;48.760;9.156;2023-07-30T02:08:25;3.65;;;2.17;;
61458;SDS011;47324;48.760;9.156;2023-07-30T02:11:10;4.55;;;1.95;;
61458;SDS011;47324;48.760;9.156;2023-07-30T02:13:54;3.50;;;1.83;;
61458;SDS011;47324;48.760;9.156;2023-07-30T02:16:39;5.32;;;2.17;;
61458;SDS011;47324;48.760;9.156;2023-07-30T02:19:24;4.30;;;1.98;;
61458;SDS011;47324;48.760;9.156;2023-07-30T02:22:08;4.82;;;1.83;;
61458;SDS011;47324;48.760;9.156;2023-07-30T02:24:53;3.35;;;1.80;;
61458;SDS011;47324;48.760;9.156;2023-07-30T02:27:38;5.88;;;2.08;;
61458;SDS011;47324;48.760;9.156;2023-07-30T02:30:22;4.03;;;2.10;;
61458;SDS011;47324;48.760;9.156;2023-07-30T02:33:07;5.13;;;1.88;;
61458;SDS011;47324;48.760;9.156;2023-07-30T02:35:52;3.60;;;1.95;;
61458;SDS011;47324;48.760;9.156;2023-07-30T02:38:37;5.15;;;2.08;;
61458;SDS011;47324;48.760;9.156;2023-07-30T02:41:21;3.92;;;1.77;;
61458;SDS011;47324;48.760;9.156;2023-07-30T02:44:06;4.75;;;2.00;;
61458;SDS011;47324;48.760;9.156;2023-07-30T02:46:51;3.47;;;2.13;;
61458;SDS011;47324;48.760;9.156;2023-07-30T02:49:35;6.13;;;1.77;;
61458;SDS011;47324;48.760;9.156;2023-07-30T02:52:20;4.88;;;2.45;;
61458;SDS011;47324;48.760;9.156;2023-07-30T02:55:05;6.90;;;1.95;;
61458;SDS011;47324;48.760;9.156;2023-07-30T02:57:49;3.38;;;1.90;;
61458;SDS011;47324;48.760;9.156;2023-07-30T03:00:34;2.80;;;1.50;;
61458;SDS011;47324;48.760;9.156;2023-07-30T03:03:19;3.30;;;1.67;;
61458;SDS011;47324;48.760;9.156;2023-07-30T03:06:04;4.82;;;2.00;;
61458;SDS011;47324;48.760;9.156;2023-07-30T03:08:48;5.13;;;1.73;;
61458;SDS011;47324;48.760;9.156;2023-07-30T03:11:33;3.55;;;2.03;;
61458;SDS011;47324;48.760;9.156;2023-07-30T03:14:18;4.60;;;1.67;;
61458;SDS011;47324;48.760;9.156;2023-07-30T03:17:05;3.78;;;1.65;;
61458;SDS011;47324;48.760;9.156;2023-07-30T03:19:50;4.50;;;1.73;;
61458;SDS011;47324;48.760;9.156;2023-07-30T03:22:34;5.30;;;1.58;;
61458;SDS011;47324;48.760;9.156;2023-07-30T03:25:19;4.10;;;1.77;;
61458;SDS011;47324;48.760;9.156;2023-07-30T03:28:04;5.25;;;1.60;;
61458;SDS011;47324;48.760;9.156;2023-07-30T03:30:49;2.95;;;1.67;;
61458;SDS011;47324;48.760;9.156;2023-07-30T03:33:33;4.50;;;2.22;;
61458;SDS011;47324;48.760;9.156;2023-07-30T03:36:19;3.55;;;1.95;;
61458;SDS011;47324;48.760;9.156;2023-07-30T03:39:03;2.40;;;1.45;;
61458;SDS011;47324;48.760;9.156;2023-07-30T03:41:48;3.13;;;1.70;;
61458;SDS011;47324;48.760;9.156;2023-07-30T03:44:33;3.00;;;1.88;;
61458;SDS011;47324;48.760;9.156;2023-07-30T03:47:17;3.60;;;1.65;;
61458;SDS011;47324;48.760;9.156;2023-07-30T03:50:02;5.57;;;1.77;;
61458;SDS011;47324;48.760;9.156;2023-07-30T03:52:47;3.42;;;1.80;;
61458;SDS011;47324;48.760;9.156;2023-07-30T03:55:31;2.67;;;1.40;;
61458;SDS011;47324;48.760;9.156;2023-07-30T03:58:17;3.28;;;1.45;;
61458;SDS011;47324;48.760;9.156;2023-07-30T04:01:01;5.60;;;2.25;;
61458;SDS011;47324;48.760;9.156;2023-07-30T04:03:46;4.85;;;1.92;;
61458;SDS011;47324;48.760;9.156;2023-07-30T04:06:31;5.03;;;2.17;;
61458;SDS011;47324;48.760;9.156;2023-07-30T04:09:15;10.10;;;1.77;;
61458;SDS011;47324;48.760;9.156;2023-07-30T04:12:00;3.80;;;1.23;;
61458;SDS011;47324;48.760;9.156;2023-07-30T04:14:44;4.43;;;1.90;;
61458;SDS011;47324;48.760;9.156;2023-07-30T04:17:30;3.15;;;1.83;;
61458;SDS011;47324;48.760;9.156;2023-07-30T04:20:15;3.33;;;1.60;;
61458;SDS011;47324;48.760;9.156;2023-07-30T04:23:02;2.75;;;1.38;;
61458;SDS011;47324;48.760;9.156;2023-07-30T04:25:48;4.10;;;1.83;;
61458;SDS011;47324;48.760;9.156;2023-07-30T04:28:33;3.40;;;1.70;;
61458;SDS011;47324;48.760;9.156;2023-07-30T04:31:18;1.83;;;1.20;;
61458;SDS011;47324;48.760;9.156;2023-07-30T04:34:02;4.45;;;1.67;;
61458;SDS011;47324;48.760;9.156;2023-07-30T04:36:47;3.80;;;1.65;;
61458;SDS011;47324;48.760;9.156;2023-07-30T04:39:32;4.95;;;1.70;;
61458;SDS011;47324;48.760;9.156;2023-07-30T04:42:17;4.93;;;1.40;;
61458;SDS011;47324;48.760;9.156;2023-07-30T04:45:01;3.72;;;1.92;;
61458;SDS011;47324;48.760;9.156;2023-07-30T04:47:47;5.00;;;1.52;;
61458;SDS011;47324;48.760;9.156;2023-07-30T04:50:31;3.28;;;1.40;;
61458;SDS011;47324;48.760;9.156;2023-07-30T04:53:16;3.47;;;1.95;;
61458;SDS011;47324;48.760;9.156;2023-07-30T04:56:02;3.05;;;1.52;;
61458;SDS011;47324;48.760;9.156;2023-07-30T04:58:47;2.03;;;1.13;;
61458;SDS011;47324;48.760;9.156;2023-07-30T05:01:32;3.33;;;1.55;;
61458;SDS011;47324;48.760;9.156;2023-07-30T05:04:17;2.92;;;1.30;;
61458;SDS011;47324;48.760;9.156;2023-07-30T05:07:01;3.65;;;1.80;;
61458;SDS011;47324;48.760;9.156;2023-07-30T05:09:46;3.90;;;1.58;;
61458;SDS011;47324;48.760;9.156;2023-07-30T05:12:31;5.85;;;1.80;;
61458;SDS011;47324;48.760;9.156;2023-07-30T05:15:15;4.10;;;1.85;;
61458;SDS011;47324;48.760;9.156;2023-07-30T05:18:00;3.70;;;1.70;;
61458;SDS011;47324;48.760;9.156;2023-07-30T05:20:46;3.67;;;1.42;;
61458;SDS011;47324;48.760;9.156;2023-07-30T05:23:31;2.83;;;1.70;;
61458;SDS011;47324;48.760;9.156;2023-07-30T05:26:15;5.47;;;1.48;;
61458;SDS011;47324;48.760;9.156;2023-07-30T05:29:00;5.80;;;1.65;;
61458;SDS011;47324;48.760;9.156;2023-07-30T05:31:45;3.13;;;1.60;;
61458;SDS011;47324;48.760;9.156;2023-07-30T05:34:29;2.72;;;1.40;;
61458;SDS011;47324;48.760;9.156;2023-07-30T05:37:14;3.70;;;1.83;;
61458;SDS011;47324;48.760;9.156;2023-07-30T05:39:59;2.60;;;1.15;;
61458;SDS011;47324;48.760;9.156;2023-07-30T05:42:44;4.43;;;1.75;;
61458;SDS011;47324;48.760;9.156;2023-07-30T05:45:28;3.38;;;1.88;;
61458;SDS011;47324;48.760;9.156;2023-07-30T05:48:13;3.03;;;1.25;;
61458;SDS011;47324;48.760;9.156;2023-07-30T05:50:57;3.85;;;1.27;;
61458;SDS011;47324;48.760;9.156;2023-07-30T05:53:42;3.20;;;1.50;;
61458;SDS011;47324;48.760;9.156;2023-07-30T05:56:27;4.93;;;1.63;;
61458;SDS011;47324;48.760;9.156;2023-07-30T05:59:12;3.97;;;1.73;;
61458;SDS011;47324;48.760;9.156;2023-07-30T06:02:01;4.53;;;1.30;;
61458;SDS011;47324;48.760;9.156;2023-07-30T06:04:48;3.58;;;1.60;;
61458;SDS011;47324;48.760;9.156;2023-07-30T06:07:33;3.00;;;1.25;;
61458;SDS011;47324;48.760;9.156;2023-07-30T06:10:20;3.42;;;1.35;;
61458;SDS011;47324;48.760;9.156;2023-07-30T06:13:05;1.83;;;1.25;;
61458;SDS011;47324;48.760;9.156;2023-07-30T06:15:50;4.47;;;1.90;;
61458;SDS011;47324;48.760;9.156;2023-07-30T06:18:34;2.42;;;1.35;;
61458;SDS011;47324;48.760;9.156;2023-07-30T06:21:18;2.17;;;1.10;;
61458;SDS011;47324;48.760;9.156;2023-07-30T06:24:03;3.35;;;1.63;;
61458;SDS011;47324;48.760;9.156;2023-07-30T06:26:49;5.15;;;1.52;;
61458;SDS011;47324;48.760;9.156;2023-07-30T06:29:33;2.55;;;1.30;;
61458;SDS011;47324;48.760;9.156;2023-07-30T06:32:18;3.17;;;1.75;;
61458;SDS011;47324;48.760;9.156;2023-07-30T06:35:03;2.80;;;1.35;;
61458;SDS011;47324;48.760;9.156;2023-07-30T06:37:48;5.18;;;1.27;;
61458;SDS011;47324;48.760;9.156;2023-07-30T06:40:34;1.23;;;0.93;;
61458;SDS011;47324;48.760;9.156;2023-07-30T06:43:19;3.20;;;1.30;;
61458;SDS011;47324;48.760;9.156;2023-07-30T06:46:04;4.20;;;1.40;;
61458;SDS011;47324;48.760;9.156;2023-07-30T06:48:48;3.03;;;1.23;;
61458;SDS011;47324;48.760;9.156;2023-07-30T06:51:33;1.92;;;0.90;;
61458;SDS011;47324;48.760;9.156;2023-07-30T06:54:19;2.70;;;1.27;;
61458;SDS011;47324;48.760;9.156;2023-07-30T06:57:04;2.47;;;1.20;;
61458;SDS011;47324;48.760;9.156;2023-07-30T06:59:50;2.25;;;1.15;;
61458;SDS011;47324;48.760;9.156;2023-07-30T07:02:35;1.52;;;0.80;;
61458;SDS011;47324;48.760;9.156;2023-07-30T07:05:21;2.08;;;1.00;;
61458;SDS011;47324;48.760;9.156;2023-07-30T07:08:06;2.65;;;1.10;;
61458;SDS011;47324;48.760;9.156;2023-07-30T07:10:51;2.22;;;1.00;;
61458;SDS011;47324;48.760;9.156;2023-07-30T07:13:36;2.33;;;1.20;;
61458;SDS011;47324;48.760;9.156;2023-07-30T07:16:20;1.95;;;0.93;;
61458;SDS011;47324;48.760;9.156;2023-07-30T07:19:05;3.90;;;1.00;;
61458;SDS011;47324;48.760;9.156;2023-07-30T07:21:50;1.65;;;0.90;;
61458;SDS011;47324;48.760;9.156;2023-07-30T07:24:34;1.80;;;0.90;;
61458;SDS011;47324;48.760;9.156;2023-07-30T07:27:21;2.08;;;0.95;;
61458;SDS011;47324;48.760;9.156;2023-07-30T07:30:08;1.27;;;0.88;;
61458;SDS011;47324;48.760;9.156;2023-07-30T07:32:53;2.75;;;1.00;;
61458;SDS011;47324;48.760;9.156;2023-07-30T07:35:39;1.85;;;0.88;;
61458;SDS011;47324;48.760;9.156;2023-07-30T07:38:24;2.33;;;1.20;;
61458;SDS011;47324;48.760;9.156;2023-07-30T07:41:13;1.20;;;0.80;;
61458;SDS011;47324;48.760;9.156;2023-07-30T07:43:59;0.75;;;0.50;;
61458;SDS011;47324;48.760;9.156;2023-07-30T07:46:44;2.45;;;0.68;;
61458;SDS011;47324;48.760;9.156;2023-07-30T07:49:29;1.40;;;0.68;;
61458;SDS011;47324;48.760;9.156;2023-07-30T07:52:14;1.23;;;0.70;;
61458;SDS011;47324;48.760;9.156;2023-07-30T07:55:00;2.60;;;0.70;;
61458;SDS011;47324;48.760;9.156;2023-07-30T07:57:45;2.25;;;1.00;;
61458;SDS011;47324;48.760;9.156;2023-07-30T08:00:29;1.92;;;1.08;;
61458;SDS011;47324;48.760;9.156;2023-07-30T08:03:14;1.83;;;0.95;;
61458;SDS011;47324;48.760;9.156;2023-07-30T08:05:58;1.55;;;0.60;;
61458;SDS011;47324;48.760;9.156;2023-07-30T08:08:43;1.30;;;0.68;;
61458;SDS011;47324;48.760;9.156;2023-07-30T08:11:29;1.15;;;0.60;;
61458;SDS011;47324;48.760;9.156;2023-07-30T08:14:14;0.82;;;0.50;;
61458;SDS011;47324;48.760;9.156;2023-07-30T08:16:59;3.10;;;0.80;;
61458;SDS011;47324;48.760;9.156;2023-07-30T08:19:43;1.70;;;0.82;;
61458;SDS011;47324;48.760;9.156;2023-07-30T08:22:28;1.85;;;0.75;;
61458;SDS011;47324;48.760;9.156;2023-07-30T08:25:12;1.88;;;0.90;;
61458;SDS011;47324;48.760;9.156;2023-07-30T08:27:57;2.35;;;0.90;;
61458;SDS011;47324;48.760;9.156;2023-07-30T08:30:43;1.92;;;0.80;;
61458;SDS011;47324;48.760;9.156;2023-07-30T08:33:27;1.85;;;0.90;;
61458;SDS011;47324;48.760;9.156;2023-07-30T08:36:13;1.90;;;0.50;;
61458;SDS011;47324;48.760;9.156;2023-07-30T08:38:57;1.67;;;0.90;;
61458;SDS011;47324;48.760;9.156;2023-07-30T08:41:43;2.03;;;0.90;;
61458;SDS011;47324;48.760;9.156;2023-07-30T08:44:29;1.58;;;0.60;;
61458;SDS011;47324;48.760;9.156;2023-07-30T08:47:14;1.52;;;0.70;;
61458;SDS011;47324;48.760;9.156;2023-07-30T08:49:59;2.90;;;0.70;;
61458;SDS011;47324;48.760;9.156;2023-07-30T08:52:43;2.22;;;1.10;;
61458;SDS011;47324;48.760;9.156;2023-07-30T08:55:32;2.13;;;1.02;;
61458;SDS011;47324;48.760;9.156;2023-07-30T08:58:17;1.98;;;0.90;;
61458;SDS011;47324;48.760;9.156;2023-07-30T09:01:05;1.75;;;0.93;;
61458;SDS011;47324;48.760;9.156;2023-07-30T09:03:53;3.97;;;1.20;;
61458;SDS011;47324;48.760;9.156;2023-07-30T09:06:38;1.80;;;0.93;;
61458;SDS011;47324;48.760;9.156;2023-07-30T09:09:22;1.50;;;0.80;;
61458;SDS011;47324;48.760;9.156;2023-07-30T09:12:14;2.42;;;0.90;;
61458;SDS011;47324;48.760;9.156;2023-07-30T09:15:00;3.08;;;1.27;;
61458;SDS011;47324;48.760;9.156;2023-07-30T09:17:54;2.28;;;1.25;;
61458;SDS011;47324;48.760;9.156;2023-07-30T09:20:40;1.42;;;0.80;;
61458;SDS011;47324;48.760;9.156;2023-07-30T09:23:25;4.85;;;0.98;;
61458;SDS011;47324;48.760;9.156;2023-07-30T09:26:10;4.70;;;1.08;;
61458;SDS011;47324;48.760;9.156;2023-07-30T09:28:55;1.45;;;0.70;;
61458;SDS011;47324;48.760;9.156;2023-07-30T09:31:47;3.80;;;0.90;;
61458;SDS011;47324;48.760;9.156;2023-07-30T09:34:35;1.73;;;0.80;;
61458;SDS011;47324;48.760;9.156;2023-07-30T09:37:19;1.98;;;1.02;;
61458;SDS011;47324;48.760;9.156;2023-07-30T09:40:05;2.25;;;0.95;;
61458;SDS011;47324;48.760;9.156;2023-07-30T09:42:51;1.77;;;0.90;;
61458;SDS011;47324;48.760;9.156;2023-07-30T09:45:36;2.25;;;1.20;;
61458;SDS011;47324;48.760;9.156;2023-07-30T09:48:21;3.20;;;1.02;;
61458;SDS011;47324;48.760;9.156;2023-07-30T09:51:05;2.13;;;1.10;;
61458;SDS011;47324;48.760;9.156;2023-07-30T09:53:50;2.33;;;1.20;;
61458;SDS011;47324;48.760;9.156;2023-07-30T09:56:36;3.03;;;1.30;;
61458;SDS011;47324;48.760;9.156;2023-07-30T09:59:21;2.92;;;0.98;;
61458;SDS011;47324;48.760;9.156;2023-07-30T10:02:06;2.55;;;1.38;;
61458;SDS011;47324;48.760;9.156;2023-07-30T10:04:52;1.95;;;1.13;;
61458;SDS011;47324;48.760;9.156;2023-07-30T10:07:38;1.90;;;0.95;;
61458;SDS011;47324;48.760;9.156;2023-07-30T10:10:27;6.30;;;1.08;;
61458;SDS011;47324;48.760;9.156;2023-07-30T10:13:12;4.78;;;1.60;;
61458;SDS011;47324;48.760;9.156;2023-07-30T10:15:58;1.70;;;0.93;;
61458;SDS011;47324;48.760;9.156;2023-07-30T10:18:43;1.60;;;0.88;;
61458;SDS011;47324;48.760;9.156;2023-07-30T10:21:28;2.13;;;1.05;;
61458;SDS011;47324;48.760;9.156;2023-07-30T10:24:16;2.92;;;0.95;;
61458;SDS011;47324;48.760;9.156;2023-07-30T10:27:05;3.63;;;1.52;;
61458;SDS011;47324;48.760;9.156;2023-07-30T10:29:51;2.90;;;1.27;;
61458;SDS011;47324;48.760;9.156;2023-07-30T10:38:30;2.95;;;1.27;;
61458;SDS011;47324;48.760;9.156;2023-07-30T10:41:16;2.72;;;1.10;;
61458;SDS011;47324;48.760;9.156;2023-07-30T10:44:01;2.25;;;1.02;;
61458;SDS011;47324;48.760;9.156;2023-07-30T10:46:47;2.25;;;1.02;;
61458;SDS011;47324;48.760;9.156;2023-07-30T10:49:38;2.92;;;1.00;;
61458;SDS011;47324;48.760;9.156;2023-07-30T10:52:25;2.05;;;0.98;;
61458;SDS011;47324;48.760;9.156;2023-07-30T10:55:10;5.18;;;1.45;;
61458;SDS011;47324;48.760;9.156;2023-07-30T10:57:55;2.17;;;1.20;;
61458;SDS011;47324;48.760;9.156;2023-07-30T11:00:40;2.47;;;1.13;;
61458;SDS011;47324;48.760;9.156;2023-07-30T11:03:25;2.80;;;1.30;;
61458;SDS011;47324;48.760;9.156;2023-07-30T11:06:10;2.65;;;1.30;;
61458;SDS011;47324;48.760;9.156;2023-07-30T11:08:55;3.78;;;1.55;;
61458;SDS011;47324;48.760;9.156;2023-07-30T11:11:41;3.65;;;1.48;;
61458;SDS011;47324;48.760;9.156;2023-07-30T11:14:27;4.25;;;2.20;;
61458;SDS011;47324;48.760;9.156;2023-07-30T11:17:11;3.25;;;1.63;;
61458;SDS011;47324;48.760;9.156;2023-07-30T11:20:05;3.40;;;1.25;;
61458;SDS011;47324;48.760;9.156;2023-07-30T11:22:50;2.47;;;1.20;;
61458;SDS011;47324;48.760;9.156;2023-07-30T11:25:35;3.13;;;1.40;;
61458;SDS011;47324;48.760;9.156;2023-07-30T11:28:31;2.42;;;1.33;;
61458;SDS011;47324;48.760;9.156;2023-07-30T11:31:27;3.25;;;1.02;;
61458;SDS011;47324;48.760;9.156;2023-07-30T11:34:11;3.00;;;1.35;;
61458;SDS011;47324;48.760;9.156;2023-07-30T11:36:59;3.72;;;1.50;;
61458;SDS011;47324;48.760;9.156;2023-07-30T11:39:44;2.60;;;1.40;;
61458;SDS011;47324;48.760;9.156;2023-07-30T11:42:29;4.05;;;1.40;;
61458;SDS011;47324;48.760;9.156;2023-07-30T11:45:19;3.83;;;1.25;;
61458;SDS011;47324;48.760;9.156;2023-07-30T11:48:09;2.30;;;1.13;;
61458;SDS011;47324;48.760;9.156;2023-07-30T11:50:55;2.92;;;1.27;;
61458;SDS011;47324;48.760;9.156;2023-07-30T11:53:55;4.20;;;1.30;;
61458;SDS011;47324;48.760;9.156;2023-07-30T11:56:40;2.42;;;1.00;;
61458;SDS011;47324;48.760;9.156;2023-07-30T11:59:25;1.98;;;1.13;;
61458;SDS011;47324;48.760;9.156;2023-07-30T12:02:16;2.67;;;1.20;;
61458;SDS011;47324;48.760;9.156;2023-07-30T12:05:02;3.38;;;1.40;;
61458;SDS011;47324;48.760;9.156;2023-07-30T12:07:47;5.18;;;1.50;;
61458;SDS011;47324;48.760;9.156;2023-07-30T12:10:46;2.38;;;1.15;;
61458;SDS011;47324;48.760;9.156;2023-07-30T12:13:42;2.75;;;1.27;;
61458;SDS011;47324;48.760;9.156;2023-07-30T12:16:29;2.53;;;1.33;;
61458;SDS011;47324;48.760;9.156;2023-07-30T12:19:15;3.20;;;1.33;;
61458;SDS011;47324;48.760;9.156;2023-07-30T12:22:00;3.28;;;1.25;;
61458;SDS011;47324;48.760;9.156;2023-07-30T12:24:45;3.08;;;1.48;;
61458;SDS011;47324;48.760;9.156;2023-07-30T12:27:30;2.42;;;1.30;;
61458;SDS011;47324;48.760;9.156;2023-07-30T12:30:14;2.33;;;1.10;;
61458;SDS011;47324;48.760;9.156;2023-07-30T12:32:59;3.15;;;1.35;;
61458;SDS011;47324;48.760;9.156;2023-07-30T12:35:44;3.15;;;1.27;;
61458;SDS011;47324;48.760;9.156;2023-07-30T12:38:29;2.50;;;1.45;;
61458;SDS011;47324;48.760;9.156;2023-07-30T12:41:14;4.75;;;1.25;;
61458;SDS011;47324;48.760;9.156;2023-07-30T12:43:58;3.95;;;1.10;;
61458;SDS011;47324;48.760;9.156;2023-07-30T12:46:43;4.10;;;1.20;;
61458;SDS011;47324;48.760;9.156;2023-07-30T12:49:28;2.97;;;1.00;;
61458;SDS011;47324;48.760;9.156;2023-07-30T12:52:14;2.95;;;1.30;;
61458;SDS011;47324;48.760;9.156;2023-07-30T12:54:59;3.63;;;1.25;;
61458;SDS011;47324;48.760;9.156;2023-07-30T12:57:48;2.92;;;1.48;;
61458;SDS011;47324;48.760;9.156;2023-07-30T13:00:33;3.03;;;1.00;;
61458;SDS011;47324;48.760;9.156;2023-07-30T13:03:18;4.43;;;1.98;;
61458;SDS011;47324;48.760;9.156;2023-07-30T13:06:03;2.65;;;1.10;;
61458;SDS011;47324;48.760;9.156;2023-07-30T13:08:47;2.10;;;0.82;;
61458;SDS011;47324;48.760;9.156;2023-07-30T13:11:34;3.05;;;1.02;;
61458;SDS011;47324;48.760;9.156;2023-07-30T13:14:20;3.60;;;1.48;;
61458;SDS011;47324;48.760;9.156;2023-07-30T13:17:04;2.33;;;0.90;;
61458;SDS011;47324;48.760;9.156;2023-07-30T13:19:48;3.35;;;1.25;;
61458;SDS011;47324;48.760;9.156;2023-07-30T13:22:33;3.28;;;0.98;;
61458;SDS011;47324;48.760;9.156;2023-07-30T13:25:19;2.53;;;1.10;;
61458;SDS011;47324;48.760;9.156;2023-07-30T13:28:04;2.65;;;1.17;;
61458;SDS011;47324;48.760;9.156;2023-07-30T13:30:49;3.53;;;1.50;;
61458;SDS011;47324;48.760;9.156;2023-07-30T13:33:34;2.85;;;1.23;;
61458;SDS011;47324;48.760;9.156;2023-07-30T13:36:19;3.45;;;1.20;;
61458;SDS011;47324;48.760;9.156;2023-07-30T13:39:04;3.53;;;1.17;;
61458;SDS011;47324;48.760;9.156;2023-07-30T13:41:50;2.63;;;1.40;;
61458;SDS011;47324;48.760;9.156;2023-07-30T13:44:36;3.03;;;1.40;;
61458;SDS011;47324;48.760;9.156;2023-07-30T13:47:20;3.30;;;1.20;;
61458;SDS011;47324;48.760;9.156;2023-07-30T13:50:06;3.47;;;1.63;;
61458;SDS011;47324;48.760;9.156;2023-07-30T13:52:51;5.35;;;1.50;;
61458;SDS011;47324;48.760;9.156;2023-07-30T13:55:36;2.25;;;1.23;;
61458;SDS011;47324;48.760;9.156;2023-07-30T13:58:21;2.88;;;1.13;;
61458;SDS011;47324;48.760;9.156;2023-07-30T14:01:06;5.63;;;1.83;;
61458;SDS011;47324;48.760;9.156;2023-07-30T14:03:53;4.07;;;1.30;;
61458;SDS011;47324;48.760;9.156;2023-07-30T14:06:38;3.67;;;1.17;;
61458;SDS011;47324;48.760;9.156;2023-07-30T14:09:22;2.60;;;0.98;;
61458;SDS011;47324;48.760;9.156;2023-07-30T14:12:09;4.30;;;0.85;;
61458;SDS011;47324;48.760;9.156;2023-07-30T14:14:53;2.00;;;1.02;;
61458;SDS011;47324;48.760;9.156;2023-07-30T14:17:38;3.75;;;1.13;;
61458;SDS011;47324;48.760;9.156;2023-07-30T14:20:23;2.25;;;1.10;;
61458;SDS011;47324;48.760;9.156;2023-07-30T14:23:08;2.30;;;1.00;;
61458;SDS011;47324;48.760;9.156;2023-07-30T14:25:52;6.13;;;1.38;;
61458;SDS011;47324;48.760;9.156;2023-07-30T14:28:37;2.50;;;1.15;;
61458;SDS011;47324;48.760;9.156;2023-07-30T14:31:21;3.38;;;1.38;;
61458;SDS011;47324;48.760;9.156;2023-07-30T14:34:06;2.60;;;0.98;;
61458;SDS011;47324;48.760;9.156;2023-07-30T14:36:52;4.72;;;1.23;;
61458;SDS011;47324;48.760;9.156;2023-07-30T14:39:36;3.58;;;0.98;;
61458;SDS011;47324;48.760;9.156;2023-07-30T14:42:21;4.22;;;0.93;;
61458;SDS011;47324;48.760;9.156;2023-07-30T14:45:07;2.47;;;0.88;;
61458;SDS011;47324;48.760;9.156;2023-07-30T14:47:52;6.15;;;1.45;;
61458;SDS011;47324;48.760;9.156;2023-07-30T14:50:36;2.65;;;0.98;;
61458;SDS011;47324;48.760;9.156;2023-07-30T14:53:21;4.03;;;1.00;;
61458;SDS011;47324;48.760;9.156;2023-07-30T14:56:06;5.25;;;1.20;;
61458;SDS011;47324;48.760;9.156;2023-07-30T14:58:51;3.00;;;1.20;;
61458;SDS011;47324;48.760;9.156;2023-07-30T15:01:36;2.60;;;0.93;;
61458;SDS011;47324;48.760;9.156;2023-07-30T15:04:21;3.53;;;1.08;;
61458;SDS011;47324;48.760;9.156;2023-07-30T15:07:06;3.15;;;0.80;;
61458;SDS011;47324;48.760;9.156;2023-07-30T15:09:54;2.58;;;0.90;;
61458;SDS011;47324;48.760;9.156;2023-07-30T15:12:39;2.75;;;1.33;;
61458;SDS011;47324;48.760;9.156;2023-07-30T15:15:24;3.55;;;1.20;;
61458;SDS011;47324;48.760;9.156;2023-07-30T15:18:08;3.22;;;1.00;;
61458;SDS011;47324;48.760;9.156;2023-07-30T15:20:55;1.65;;;0.70;;
61458;SDS011;47324;48.760;9.156;2023-07-30T15:23:42;2.58;;;1.10;;
61458;SDS011;47324;48.760;9.156;2023-07-30T15:26:27;3.35;;;1.00;;
61458;SDS011;47324;48.760;9.156;2023-07-30T15:29:12;2.78;;;1.20;;
61458;SDS011;47324;48.760;9.156;2023-07-30T15:31:57;2.10;;;0.90;;
61458;SDS011;47324;48.760;9.156;2023-07-30T15:34:41;3.17;;;0.93;;
61458;SDS011;47324;48.760;9.156;2023-07-30T15:37:27;2.28;;;0.80;;
61458;SDS011;47324;48.760;9.156;2023-07-30T15:40:12;1.40;;;0.60;;
61458;SDS011;47324;48.760;9.156;2023-07-30T15:42:57;1.92;;;0.70;;
61458;SDS011;47324;48.760;9.156;2023-07-30T15:45:42;3.53;;;0.98;;
61458;SDS011;47324;48.760;9.156;2023-07-30T15:48:28;2.35;;;0.90;;
61458;SDS011;47324;48.760;9.156;2023-07-30T15:51:13;1.42;;;0.73;;
61458;SDS011;47324;48.760;9.156;2023-07-30T15:53:57;2.92;;;0.90;;
61458;SDS011;47324;48.760;9.156;2023-07-30T15:56:41;1.45;;;0.75;;
61458;SDS011;47324;48.760;9.156;2023-07-30T15:59:26;3.15;;;0.88;;
61458;SDS011;47324;48.760;9.156;2023-07-30T16:02:11;2.72;;;1.00;;
61458;SDS011;47324;48.760;9.156;2023-07-30T16:04:57;4.07;;;0.82;;
61458;SDS011;47324;48.760;9.156;2023-07-30T16:07:42;1.80;;;0.70;;
61458;SDS011;47324;48.760;9.156;2023-07-30T16:10:26;2.78;;;0.90;;
61458;SDS011;47324;48.760;9.156;2023-07-30T16:13:11;1.25;;;0.55;;
61458;SDS011;47324;48.760;9.156;2023-07-30T16:15:56;3.25;;;1.00;;
61458;SDS011;47324;48.760;9.156;2023-07-30T16:18:40;2.13;;;0.82;;
61458;SDS011;47324;48.760;9.156;2023-07-30T16:21:26;2.95;;;0.88;;
61458;SDS011;47324;48.760;9.156;2023-07-30T16:24:11;3.67;;;1.10;;
61458;SDS011;47324;48.760;9.156;2023-07-30T16:26:55;1.70;;;0.70;;
61458;SDS011;47324;48.760;9.156;2023-07-30T16:29:40;1.67;;;0.73;;
61458;SDS011;47324;48.760;9.156;2023-07-30T16:32:25;2.45;;;0.85;;
61458;SDS011;47324;48.760;9.156;2023-07-30T16:35:09;6.13;;;1.50;;
61458;SDS011;47324;48.760;9.156;2023-07-30T16:37:54;3.13;;;0.75;;
61458;SDS011;47324;48.760;9.156;2023-07-30T16:40:39;2.78;;;0.70;;
61458;SDS011;47324;48.760;9.156;2023-07-30T16:43:24;1.75;;;0.80;;